ENSG/SOG METAR and TAF weather

Enter ICAO airport designator
Station Type Date Time Source
ENSG METAR 2019/12/15 20:20 UTC NOAA

ENSG 152020Z 04004KT 9999 2000E VCFGFG SCT000 M01/M01 Q0985 RMK WIND 3806FT 19010KT


Station Type Date Time Source
ENSG Decoded METAR 2019/12/15 20:20 UTC NOAA

Sogndal / Haukasen, Norway (ENSG) 61-09N 007-08E 497M
Dec 15, 2019 - 03:20 PM EST / 2019.12.15 2020 UTC
Wind: from the NE (040 degrees) at 5 MPH (4 KT):0
Visibility: greater than 7 mile(s):0
Sky conditions: partly cloudy
Weather: fog, fog in the vicinity
Temperature: 30 F (-1 C)
Windchill: 24 F (-4 C):1
Dew Point: 30 F (-1 C)
Relative Humidity: 100%
Pressure (altimeter): 29.09 in. Hg (0985 hPa)
ob: ENSG 152020Z 04004KT 9999 2000E VCFGFG SCT000 M01/M01 Q0985 RMK WIND 3806FT 19010KT
cycle: 20

Station Type Date Time Source
ENSG TAF UTC NOAA

Error!

Example: see airport list